createdAt,value
2023-04-13T00:00:29.498Z,14.10
2023-04-13T00:02:57.501Z,14.87
2023-04-13T00:05:25.778Z,16.77
2023-04-13T00:07:53.966Z,14.97
2023-04-13T00:10:21.624Z,18.40
2023-04-13T00:12:49.767Z,14.57
2023-04-13T00:15:19.369Z,15.63
2023-04-13T00:17:47.693Z,15.23
2023-04-13T00:20:14.988Z,14.63
2023-04-13T00:22:43.466Z,15.03
2023-04-13T00:25:14.522Z,14.90
2023-04-13T00:27:43.551Z,17.57
2023-04-13T00:30:13.227Z,14.17
2023-04-13T00:32:40.978Z,15.80
2023-04-13T00:35:11.351Z,15.43
2023-04-13T00:37:39.851Z,12.80
2023-04-13T00:40:11.011Z,14.87
2023-04-13T00:42:39.383Z,14.80
2023-04-13T00:45:09.555Z,13.03
2023-04-13T00:47:36.686Z,14.63
2023-04-13T00:50:07.336Z,14.03
2023-04-13T00:52:34.923Z,13.30
2023-04-13T00:55:02.988Z,14.67
2023-04-13T00:57:32.640Z,16.10
2023-04-13T01:00:29.190Z,15.47
2023-04-13T01:02:57.429Z,16.80
2023-04-13T01:05:25.780Z,12.73
2023-04-13T01:08:04.871Z,15.17
2023-04-13T01:10:36.723Z,13.37
2023-04-13T01:13:15.872Z,15.23
2023-04-13T01:15:47.960Z,13.23
2023-04-13T01:18:15.816Z,14.70
2023-04-13T01:20:45.106Z,11.70
2023-04-13T01:23:49.960Z,12.37
2023-04-13T01:26:18.348Z,12.97
2023-04-13T01:28:46.285Z,14.53
2023-04-13T01:31:13.603Z,12.27
2023-04-13T01:33:41.379Z,13.43
2023-04-13T01:36:10.481Z,15.80
2023-04-13T01:38:38.020Z,12.33
2023-04-13T01:41:06.988Z,13.70
2023-04-13T01:43:35.215Z,13.13
2023-04-13T01:46:10.179Z,12.73
2023-04-13T01:48:43.311Z,13.83
2023-04-13T01:51:21.819Z,15.53
2023-04-13T01:53:57.010Z,15.80
2023-04-13T01:56:31.343Z,14.00
2023-04-13T01:58:58.780Z,16.20
2023-04-13T02:01:27.285Z,14.70
2023-04-13T02:03:54.875Z,15.00
2023-04-13T02:06:22.528Z,15.43
2023-04-13T02:08:52.502Z,16.27
2023-04-13T02:11:21.017Z,16.00
2023-04-13T02:13:48.629Z,16.60
2023-04-13T02:16:16.922Z,18.70
2023-04-13T02:18:45.103Z,16.30
2023-04-13T02:21:13.495Z,14.47
2023-04-13T02:23:41.844Z,14.97
2023-04-13T02:26:16.546Z,15.83
2023-04-13T02:28:44.649Z,13.67
2023-04-13T02:31:17.160Z,13.60
2023-04-13T02:33:46.421Z,13.37
2023-04-13T02:36:13.971Z,13.40
2023-04-13T02:38:42.219Z,14.27
2023-04-13T02:41:10.309Z,15.03
2023-04-13T02:43:38.606Z,12.37
2023-04-13T02:46:09.006Z,12.67
2023-04-13T02:48:36.687Z,14.70
2023-04-13T02:51:05.939Z,11.67
2023-04-13T02:53:33.554Z,13.47
2023-04-13T02:56:01.554Z,12.07
2023-04-13T02:58:31.833Z,12.97
2023-04-13T03:00:59.917Z,12.20
2023-04-13T03:03:27.632Z,13.80
2023-04-13T03:05:55.223Z,12.13
2023-04-13T03:08:24.046Z,10.90
2023-04-13T03:10:53.019Z,13.77
2023-04-13T03:13:21.579Z,11.67
2023-04-13T03:15:49.468Z,10.80
2023-04-13T03:18:29.683Z,11.27
2023-04-13T03:20:57.498Z,11.10
2023-04-13T03:23:25.435Z,12.57
2023-04-13T03:25:53.355Z,11.60
2023-04-13T03:28:21.060Z,11.60
2023-04-13T03:30:48.776Z,11.07
2023-04-13T03:33:16.719Z,12.53
2023-04-13T03:35:47.831Z,12.47
2023-04-13T03:38:15.557Z,11.90
2023-04-13T03:40:43.145Z,11.50
2023-04-13T03:43:11.071Z,11.40
2023-04-13T03:45:38.660Z,13.43
2023-04-13T03:48:07.117Z,11.43
2023-04-13T03:50:41.993Z,12.60
2023-04-13T03:53:10.145Z,10.93
2023-04-13T03:55:37.615Z,11.40
2023-04-13T03:58:04.885Z,13.33
2023-04-13T04:00:32.749Z,10.83
2023-04-13T04:03:00.865Z,11.93
2023-04-13T04:05:28.437Z,15.50
2023-04-13T04:07:56.605Z,15.13
2023-04-13T04:10:24.749Z,10.40
2023-04-13T04:12:52.628Z,13.13
2023-04-13T04:15:20.512Z,12.87
2023-04-13T04:17:48.564Z,13.57
2023-04-13T04:20:20.929Z,12.53
2023-04-13T04:22:48.717Z,13.97
2023-04-13T04:25:22.079Z,13.23
2023-04-13T04:27:53.896Z,12.67
2023-04-13T04:30:22.408Z,14.80
2023-04-13T04:32:53.131Z,16.17
2023-04-13T04:35:26.132Z,14.40
2023-04-13T04:37:55.270Z,15.20
2023-04-13T04:40:23.374Z,17.57
2023-04-13T04:42:51.430Z,16.07
2023-04-13T04:45:24.462Z,16.00
2023-04-13T04:47:53.239Z,19.40
2023-04-13T04:50:20.883Z,16.50
2023-04-13T04:52:48.758Z,17.87
2023-04-13T04:57:57.761Z,14.63
2023-04-13T05:00:26.876Z,15.47
2023-04-13T05:02:54.545Z,14.63
2023-04-13T05:05:22.756Z,14.27
2023-04-13T05:07:50.053Z,16.07
2023-04-13T05:10:17.658Z,16.00
2023-04-13T05:12:45.860Z,18.40
2023-04-13T05:15:13.775Z,16.10
2023-04-13T05:17:41.996Z,16.57
2023-04-13T05:20:12.614Z,16.67
2023-04-13T05:22:39.883Z,15.83
2023-04-13T05:25:09.547Z,15.80
2023-04-13T05:27:37.330Z,14.97
2023-04-13T05:30:09.748Z,15.40
2023-04-13T05:32:37.375Z,14.57
2023-04-13T05:35:07.175Z,14.63
2023-04-13T05:37:35.285Z,13.47
2023-04-13T05:40:09.804Z,19.07
2023-04-13T05:42:37.630Z,14.97
2023-04-13T05:45:09.935Z,14.00
2023-04-13T05:47:40.210Z,16.97
2023-04-13T05:50:11.390Z,18.37
2023-04-13T05:52:38.957Z,17.47
2023-04-13T05:55:08.524Z,15.50
2023-04-13T05:57:36.303Z,15.37
2023-04-13T06:00:08.092Z,14.80
2023-04-13T06:02:37.529Z,14.33
2023-04-13T06:05:08.122Z,14.90
2023-04-13T06:07:35.908Z,15.03
2023-04-13T06:10:04.218Z,13.60
2023-04-13T06:12:32.163Z,13.23
2023-04-13T06:14:59.802Z,13.97
2023-04-13T06:17:28.114Z,13.93
2023-04-13T06:19:56.571Z,14.97
2023-04-13T06:22:24.764Z,13.50
2023-04-13T06:24:52.410Z,13.90
2023-04-13T06:27:22.120Z,16.93
2023-04-13T06:29:49.373Z,16.43
2023-04-13T06:32:17.561Z,17.50
2023-04-13T06:35:05.279Z,17.37
2023-04-13T06:37:35.164Z,17.47
2023-04-13T06:40:16.374Z,17.83
2023-04-13T06:42:44.204Z,18.97
2023-04-13T06:45:13.291Z,16.23
2023-04-13T06:47:41.559Z,18.13
2023-04-13T06:50:14.165Z,17.17
2023-04-13T06:53:04.543Z,15.37
2023-04-13T06:55:32.078Z,15.50
2023-04-13T06:58:00.429Z,14.83
2023-04-13T07:00:30.506Z,14.20
2023-04-13T07:02:58.889Z,16.23
2023-04-13T07:05:31.302Z,15.17
2023-04-13T07:08:08.696Z,15.63
2023-04-13T07:10:41.929Z,14.87
2023-04-13T07:13:10.142Z,14.83
2023-04-13T07:15:39.709Z,16.37
2023-04-13T07:18:08.432Z,16.00
2023-04-13T07:20:39.392Z,14.23
2023-04-13T07:23:08.055Z,15.30
2023-04-13T07:25:41.461Z,15.47
2023-04-13T07:28:09.851Z,14.03
2023-04-13T07:30:41.411Z,13.23
2023-04-13T07:33:09.846Z,13.53
2023-04-13T07:35:40.061Z,14.13
2023-04-13T07:38:14.165Z,11.83
2023-04-13T07:40:42.612Z,13.03
2023-04-13T07:43:10.162Z,13.47
2023-04-13T07:45:38.131Z,12.20
2023-04-13T07:48:07.634Z,12.23
2023-04-13T07:50:40.287Z,14.10
2023-04-13T07:53:08.209Z,11.83
2023-04-13T07:55:37.485Z,17.07
2023-04-13T07:58:05.575Z,13.53
2023-04-13T08:00:33.132Z,15.77
2023-04-13T08:03:01.051Z,18.77
2023-04-13T08:05:29.614Z,12.93
2023-04-13T08:07:57.538Z,15.87
2023-04-13T08:10:25.779Z,13.97
2023-04-13T08:12:53.518Z,14.83
2023-04-13T08:15:21.484Z,18.00
2023-04-13T08:17:50.178Z,12.83
2023-04-13T08:20:18.661Z,14.07
2023-04-13T08:22:46.514Z,14.43
2023-04-13T08:25:14.747Z,13.03
2023-04-13T08:27:42.793Z,15.10
2023-04-13T08:30:12.736Z,13.50
2023-04-13T08:32:41.109Z,15.80
2023-04-13T08:35:11.826Z,15.10
2023-04-13T08:37:39.655Z,13.03
2023-04-13T08:40:12.215Z,13.43
2023-04-13T08:42:40.147Z,12.07
2023-04-13T08:45:10.079Z,13.43
2023-04-13T08:47:37.782Z,15.27
2023-04-13T08:50:08.982Z,13.27
2023-04-13T08:52:36.463Z,11.50
2023-04-13T08:55:05.975Z,12.00
2023-04-13T08:57:33.789Z,13.97
2023-04-13T09:00:01.642Z,14.23
2023-04-13T09:02:33.317Z,10.87
2023-04-13T09:05:03.256Z,12.93
2023-04-13T09:07:32.811Z,13.37
2023-04-13T09:10:01.037Z,11.83
2023-04-13T09:12:30.410Z,12.37
2023-04-13T09:14:57.942Z,12.67
2023-04-13T09:17:35.348Z,13.30
2023-04-13T09:20:16.705Z,16.73
2023-04-13T09:22:44.247Z,12.83
2023-04-13T09:25:47.488Z,10.97
2023-04-13T09:28:19.365Z,11.53
2023-04-13T09:30:47.135Z,73.27
2023-04-13T09:35:43.728Z,12.67
2023-04-13T09:38:15.324Z,26.70
2023-04-13T09:41:02.735Z,18.73
2023-04-13T09:43:40.422Z,15.03
2023-04-13T09:46:14.330Z,13.03
2023-04-13T09:48:42.363Z,13.43
2023-04-13T09:51:10.293Z,17.27
2023-04-13T09:54:03.614Z,26.63
2023-04-13T09:56:32.630Z,17.57
2023-04-13T09:59:00.649Z,20.40
2023-04-13T10:01:29.031Z,25.07
2023-04-13T10:03:57.809Z,10.77
2023-04-13T10:06:25.526Z,12.07
2023-04-13T10:08:53.596Z,16.30
2023-04-13T10:11:21.612Z,11.60
2023-04-13T10:13:53.483Z,9.03
2023-04-13T10:16:23.338Z,7.53
2023-04-13T10:19:04.627Z,7.77
2023-04-13T10:21:51.832Z,7.10
2023-04-13T10:24:19.280Z,11.53
2023-04-13T10:27:07.037Z,10.93
2023-04-13T10:29:55.195Z,5.20
2023-04-13T10:32:26.090Z,5.73
2023-04-13T10:34:54.453Z,7.23
2023-04-13T10:37:23.612Z,5.80
2023-04-13T10:40:06.878Z,6.93
2023-04-13T10:42:51.870Z,6.90
2023-04-13T10:45:49.031Z,7.67
2023-04-13T10:48:21.894Z,13.63
2023-04-13T10:50:59.423Z,7.40
2023-04-13T10:53:30.538Z,6.07
2023-04-13T10:55:58.104Z,5.10
2023-04-13T10:58:26.488Z,3.60
2023-04-13T11:00:55.008Z,4.03
2023-04-13T11:03:23.318Z,5.93
2023-04-13T11:05:57.852Z,8.07
2023-04-13T11:08:26.688Z,8.90
2023-04-13T11:10:58.745Z,3.93
2023-04-13T11:13:26.869Z,4.70
2023-04-13T11:16:02.980Z,5.30
2023-04-13T11:18:30.693Z,10.88
2023-04-13T11:20:59.019Z,18.37
2023-04-13T11:23:26.890Z,10.50
2023-04-13T11:26:01.382Z,6.23
2023-04-13T11:28:40.019Z,10.70
2023-04-13T11:31:09.272Z,4.87
2023-04-13T11:33:39.515Z,7.47
2023-04-13T11:36:09.760Z,4.27
2023-04-13T11:38:40.556Z,5.50
2023-04-13T11:41:16.328Z,4.97
2023-04-13T11:43:46.521Z,6.38
2023-04-13T11:46:16.377Z,3.73
2023-04-13T11:48:44.684Z,4.07
2023-04-13T11:51:12.380Z,5.47
2023-04-13T11:53:40.795Z,4.43
2023-04-13T11:56:11.427Z,6.03
2023-04-13T11:58:39.856Z,4.43
2023-04-13T12:01:14.287Z,3.53
2023-04-13T12:06:17.163Z,4.67
2023-04-13T12:08:49.560Z,4.97
2023-04-13T12:19:13.689Z,4.67
2023-04-13T12:21:53.357Z,4.47
2023-04-13T12:24:20.678Z,5.80
2023-04-13T12:29:22.258Z,4.90
2023-04-13T12:31:50.005Z,4.10
2023-04-13T12:34:17.606Z,3.60
2023-04-13T12:36:45.616Z,4.40
2023-04-13T12:39:13.517Z,5.17
2023-04-13T12:41:41.768Z,6.10
2023-04-13T12:44:10.774Z,7.73
2023-04-13T12:46:38.687Z,5.90
2023-04-13T12:49:06.289Z,4.63
2023-04-13T12:51:34.685Z,4.70
2023-04-13T12:54:02.653Z,7.27
2023-04-13T12:56:32.988Z,4.43
2023-04-13T12:59:01.580Z,3.73
2023-04-13T13:01:29.440Z,4.83
2023-04-13T13:03:57.672Z,6.60
2023-04-13T13:06:26.186Z,4.03
2023-04-13T13:08:54.693Z,5.63
2023-04-13T13:11:21.782Z,4.33
2023-04-13T13:13:49.986Z,3.87
2023-04-13T13:16:19.574Z,3.73
2023-04-13T13:18:51.298Z,5.10
2023-04-13T13:21:20.019Z,5.13
2023-04-13T13:23:47.981Z,4.60
2023-04-13T13:28:46.369Z,5.70
2023-04-13T13:31:15.593Z,4.20
2023-04-13T13:33:43.621Z,3.83
2023-04-13T13:36:15.956Z,4.23
2023-04-13T13:38:44.052Z,3.73
2023-04-13T13:41:11.439Z,3.80
2023-04-13T13:43:39.739Z,2.47
2023-04-13T13:46:07.765Z,2.17
2023-04-13T13:48:35.346Z,2.13
2023-04-13T13:51:04.904Z,1.13
2023-04-13T13:53:35.914Z,1.33
2023-04-13T13:56:04.096Z,2.03
2023-04-13T13:58:31.705Z,1.80
2023-04-13T14:00:59.615Z,1.10
2023-04-13T14:03:29.228Z,1.43
2023-04-13T14:05:56.781Z,1.20
2023-04-13T14:08:24.389Z,3.13
2023-04-13T14:10:51.737Z,0.43
2023-04-13T14:13:19.395Z,1.90
2023-04-13T14:15:47.082Z,1.67
2023-04-13T14:18:14.776Z,1.23
2023-04-13T14:20:43.430Z,0.93
2023-04-13T14:23:10.975Z,0.30
2023-04-13T14:25:41.231Z,1.10
2023-04-13T14:28:09.483Z,2.13
2023-04-13T14:30:40.437Z,6.00
2023-04-13T14:33:08.394Z,1.17
2023-04-13T14:35:36.565Z,1.47
2023-04-13T14:38:04.706Z,2.67
2023-04-13T14:40:32.617Z,2.30
2023-04-13T14:43:11.072Z,1.23
2023-04-13T14:45:39.019Z,2.47
2023-04-13T14:48:07.836Z,3.03
2023-04-13T14:50:39.301Z,1.30
2023-04-13T14:53:16.422Z,2.43
2023-04-13T14:55:46.119Z,3.33
2023-04-13T14:58:13.890Z,1.73
2023-04-13T15:00:42.047Z,0.97
2023-04-13T15:03:11.083Z,2.50
2023-04-13T15:05:42.646Z,1.47
2023-04-13T15:08:11.866Z,0.30
2023-04-13T15:10:39.814Z,1.87
2023-04-13T15:13:08.445Z,0.83
2023-04-13T15:15:36.880Z,1.23
2023-04-13T15:18:12.318Z,2.30
2023-04-13T15:20:43.155Z,2.90
2023-04-13T15:23:10.733Z,0.70
2023-04-13T15:25:38.645Z,1.43
2023-04-13T15:28:06.864Z,1.10
2023-04-13T15:30:37.442Z,2.07
2023-04-13T15:33:05.090Z,1.50
2023-04-13T15:35:34.348Z,2.30
2023-04-13T15:38:05.653Z,3.13
2023-04-13T15:40:34.928Z,2.03
2023-04-13T15:43:03.268Z,2.57
2023-04-13T15:45:30.245Z,1.00
2023-04-13T15:47:57.446Z,1.40
2023-04-13T15:50:25.322Z,1.50
2023-04-13T15:52:53.086Z,1.50
2023-04-13T15:55:21.358Z,2.07
2023-04-13T15:57:50.493Z,0.97
2023-04-13T16:00:19.443Z,1.40
2023-04-13T16:02:47.621Z,3.77
2023-04-13T16:05:19.321Z,2.57
2023-04-13T16:07:47.370Z,1.97
2023-04-13T16:10:17.091Z,1.57
2023-04-13T16:12:45.565Z,1.57
2023-04-13T16:15:13.421Z,0.93
2023-04-13T16:17:44.204Z,1.77
2023-04-13T16:20:12.972Z,2.13
2023-04-13T16:22:41.782Z,1.60
2023-04-13T16:25:11.632Z,1.80
2023-04-13T16:27:40.173Z,1.20
2023-04-13T16:30:12.877Z,1.50
2023-04-13T16:32:46.677Z,3.97
2023-04-13T16:35:14.638Z,2.97
2023-04-13T16:37:42.534Z,1.77
2023-04-13T16:40:13.437Z,4.07
2023-04-13T16:42:40.773Z,2.67
2023-04-13T16:45:12.854Z,2.13
2023-04-13T16:47:45.537Z,1.10
2023-04-13T16:50:13.566Z,3.67
2023-04-13T16:52:41.290Z,7.43
2023-04-13T16:55:08.759Z,2.73
2023-04-13T16:57:36.875Z,6.23
2023-04-13T17:00:09.460Z,4.50
2023-04-13T17:02:38.216Z,3.50
2023-04-13T17:05:11.451Z,2.77
2023-04-13T17:07:44.581Z,4.53
2023-04-13T17:10:13.629Z,3.47
2023-04-13T17:12:41.541Z,2.67
2023-04-13T17:15:11.450Z,3.27
2023-04-13T17:17:39.437Z,4.47
2023-04-13T17:20:10.109Z,4.70
2023-04-13T17:22:37.967Z,3.87
2023-04-13T17:25:07.921Z,6.20
2023-04-13T17:27:36.110Z,3.67
2023-04-13T17:30:04.991Z,3.83
2023-04-13T17:32:33.115Z,7.00
2023-04-13T17:35:01.051Z,3.80
2023-04-13T17:37:29.492Z,5.53
2023-04-13T17:40:01.139Z,5.67
2023-04-13T17:42:28.930Z,5.13
2023-04-13T17:44:57.201Z,7.50
2023-04-13T17:47:25.065Z,4.03
2023-04-13T17:49:53.354Z,1.97
2023-04-13T17:52:20.979Z,3.93
2023-04-13T17:54:49.222Z,2.47
2023-04-13T17:57:20.068Z,2.97
2023-04-13T17:59:47.814Z,2.23
2023-04-13T18:02:15.850Z,2.33
2023-04-13T18:04:43.460Z,3.30
2023-04-13T18:07:11.079Z,3.40
2023-04-13T18:09:38.751Z,4.70
2023-04-13T18:12:06.969Z,3.80
2023-04-13T18:14:35.337Z,3.80
2023-04-13T18:17:03.542Z,2.13
2023-04-13T18:19:32.651Z,5.73
2023-04-13T18:22:00.626Z,2.27
2023-04-13T18:24:35.158Z,2.43
2023-04-13T18:27:03.143Z,2.27
2023-04-13T18:29:30.738Z,3.17
2023-04-13T18:31:58.851Z,2.37
2023-04-13T18:34:28.349Z,1.73
2023-04-13T18:36:55.915Z,1.87
2023-04-13T18:39:23.984Z,2.73
2023-04-13T18:41:52.569Z,2.10
2023-04-13T18:44:20.184Z,4.03
2023-04-13T18:46:48.015Z,2.07
2023-04-13T18:49:16.973Z,2.70
2023-04-13T18:51:44.629Z,1.57
2023-04-13T18:54:12.714Z,2.80
2023-04-13T18:56:40.830Z,2.07
2023-04-13T18:59:08.561Z,3.00
2023-04-13T19:01:36.697Z,2.20
2023-04-13T19:04:05.099Z,1.50
2023-04-13T19:06:32.485Z,1.67
2023-04-13T19:09:00.440Z,2.50
2023-04-13T19:11:28.433Z,1.93
2023-04-13T19:13:56.196Z,3.43
2023-04-13T19:16:24.346Z,2.17
2023-04-13T19:18:53.226Z,2.93
2023-04-13T19:21:24.053Z,1.63
2023-04-13T19:23:51.514Z,2.90
2023-04-13T19:26:19.571Z,1.83
2023-04-13T19:28:48.276Z,4.37
2023-04-13T19:31:16.471Z,2.73
2023-04-13T19:33:46.196Z,3.17
2023-04-13T19:36:14.111Z,3.97
2023-04-13T19:38:45.066Z,5.30
2023-04-13T19:41:13.333Z,2.90
2023-04-13T19:43:41.473Z,4.43
2023-04-13T19:46:12.194Z,6.23
2023-04-13T19:48:40.423Z,4.10
2023-04-13T19:51:08.479Z,2.60
2023-04-13T19:53:38.256Z,2.57
2023-04-13T19:56:06.790Z,2.17
2023-04-13T19:58:34.808Z,1.50
2023-04-13T20:01:03.003Z,1.60
2023-04-13T20:03:36.133Z,1.97
2023-04-13T20:06:06.041Z,3.77
2023-04-13T20:08:34.207Z,3.03
2023-04-13T20:11:01.873Z,3.27
2023-04-13T20:13:29.790Z,4.03
2023-04-13T20:15:57.676Z,3.97
2023-04-13T20:18:25.701Z,3.47
2023-04-13T20:20:54.217Z,2.47
2023-04-13T20:23:22.185Z,2.77
2023-04-13T20:25:50.121Z,4.50
2023-04-13T20:28:17.945Z,4.73
2023-04-13T20:30:45.886Z,4.27
2023-04-13T20:33:13.948Z,2.87
2023-04-13T20:35:41.711Z,3.00
2023-04-13T20:38:09.955Z,3.53
2023-04-13T20:40:38.153Z,3.20
2023-04-13T20:43:06.459Z,3.13
2023-04-13T20:45:36.370Z,3.30
2023-04-13T20:50:35.721Z,2.63
2023-04-13T20:53:04.929Z,7.03
2023-04-13T20:55:33.351Z,2.47
2023-04-13T20:58:02.451Z,1.73
2023-04-13T21:00:29.635Z,2.33
2023-04-13T21:02:58.228Z,2.53
2023-04-13T21:05:25.902Z,2.60
2023-04-13T21:07:55.314Z,2.67
2023-04-13T21:10:25.364Z,3.07
2023-04-13T21:12:52.962Z,2.90
2023-04-13T21:15:21.644Z,2.70
2023-04-13T21:17:49.807Z,4.50
2023-04-13T21:20:18.005Z,3.57
2023-04-13T21:22:46.007Z,3.87
2023-04-13T21:25:13.638Z,3.47
2023-04-13T21:27:41.394Z,3.30
2023-04-13T21:30:14.262Z,3.80
2023-04-13T21:32:45.360Z,3.33
2023-04-13T21:35:15.198Z,4.50
2023-04-13T21:37:42.828Z,4.53
2023-04-13T21:40:11.779Z,3.60
2023-04-13T21:42:40.799Z,3.97
2023-04-13T21:45:10.703Z,5.03
2023-04-13T21:47:38.860Z,4.80
2023-04-13T21:50:10.936Z,4.83
2023-04-13T21:52:38.827Z,5.10
2023-04-13T21:55:07.995Z,4.47
2023-04-13T21:57:35.939Z,5.90
2023-04-13T22:00:06.178Z,4.87
2023-04-13T22:02:34.638Z,4.10
2023-04-13T22:05:02.238Z,4.50
2023-04-13T22:07:41.874Z,5.17
2023-04-13T22:10:11.494Z,4.83
2023-04-13T22:12:39.552Z,5.47
2023-04-13T22:15:09.742Z,5.27
2023-04-13T22:17:37.341Z,7.27
2023-04-13T22:20:06.050Z,4.57
2023-04-13T22:22:33.693Z,5.20
2023-04-13T22:25:01.655Z,6.17
2023-04-13T22:27:29.663Z,5.93
2023-04-13T22:29:57.621Z,6.13
2023-04-13T22:32:27.281Z,7.00
2023-04-13T22:34:55.211Z,8.07
2023-04-13T22:37:23.135Z,5.90
2023-04-13T22:39:51.695Z,5.57
2023-04-13T22:42:23.627Z,10.67
2023-04-13T22:44:51.509Z,4.37
2023-04-13T22:47:19.633Z,5.47
2023-04-13T22:49:47.091Z,6.17
2023-04-13T22:52:18.920Z,5.33
2023-04-13T22:54:47.113Z,4.73
2023-04-13T22:57:14.962Z,4.53
2023-04-13T22:59:42.677Z,4.50
2023-04-13T23:02:10.826Z,4.10
2023-04-13T23:04:38.524Z,3.63
2023-04-13T23:07:06.511Z,3.67
2023-04-13T23:09:37.027Z,3.50
2023-04-13T23:12:05.094Z,3.30
2023-04-13T23:14:33.076Z,4.10
2023-04-13T23:17:00.576Z,3.00
2023-04-13T23:19:28.554Z,4.13
2023-04-13T23:21:56.431Z,4.60
2023-04-13T23:24:24.401Z,4.47
2023-04-13T23:26:52.485Z,2.60
2023-04-13T23:29:20.107Z,3.77
2023-04-13T23:31:47.784Z,3.03
2023-04-13T23:34:15.489Z,2.70
2023-04-13T23:36:44.209Z,3.47
2023-04-13T23:39:12.069Z,3.43
2023-04-13T23:41:39.734Z,4.60
2023-04-13T23:44:08.074Z,3.50
2023-04-13T23:46:35.241Z,3.37
2023-04-13T23:49:03.325Z,3.13
2023-04-13T23:51:31.322Z,4.10
2023-04-13T23:53:59.405Z,4.10
2023-04-13T23:56:27.525Z,3.37
2023-04-13T23:58:55.417Z,5.87
